sensor_id;sensor_type;location;lat;lon;timestamp;P1;durP1;ratioP1;P2;durP2;ratioP2
51877;SDS011;37911;51.526;11.536;2024-03-02T08:14:43;28.50;;;16.50;;
51877;SDS011;37911;51.526;11.536;2024-03-02T08:20:50;24.65;;;14.45;;
51877;SDS011;37911;51.526;11.536;2024-03-02T08:23:53;23.70;;;14.07;;
51877;SDS011;37911;51.526;11.536;2024-03-02T08:26:57;24.92;;;13.23;;
51877;SDS011;37911;51.526;11.536;2024-03-02T08:30:04;24.70;;;13.68;;
51877;SDS011;37911;51.526;11.536;2024-03-02T08:33:10;20.98;;;13.63;;
51877;SDS011;37911;51.526;11.536;2024-03-02T08:36:14;20.40;;;12.65;;
51877;SDS011;37911;51.526;11.536;2024-03-02T08:39:17;21.60;;;13.70;;
51877;SDS011;37911;51.526;11.536;2024-03-02T08:42:21;25.40;;;14.68;;
51877;SDS011;37911;51.526;11.536;2024-03-02T08:45:28;19.95;;;13.25;;
51877;SDS011;37911;51.526;11.536;2024-03-02T08:48:31;23.13;;;14.35;;
51877;SDS011;37911;51.526;11.536;2024-03-02T08:51:35;27.02;;;15.10;;
51877;SDS011;37911;51.526;11.536;2024-03-02T08:54:38;23.15;;;14.00;;
51877;SDS011;37911;51.526;11.536;2024-03-02T08:57:41;21.10;;;13.93;;
51877;SDS011;37911;51.526;11.536;2024-03-02T09:00:47;22.27;;;14.75;;
51877;SDS011;37911;51.526;11.536;2024-03-02T09:03:51;20.58;;;14.13;;
51877;SDS011;37911;51.526;11.536;2024-03-02T09:06:54;19.70;;;13.57;;
51877;SDS011;37911;51.526;11.536;2024-03-02T09:09:57;22.70;;;13.55;;
51877;SDS011;37911;51.526;11.536;2024-03-02T09:13:01;21.98;;;13.32;;
51877;SDS011;37911;51.526;11.536;2024-03-02T09:16:07;22.80;;;14.90;;
51877;SDS011;37911;51.526;11.536;2024-03-02T09:19:11;24.05;;;13.70;;
51877;SDS011;37911;51.526;11.536;2024-03-02T09:22:14;33.75;;;24.52;;
51877;SDS011;37911;51.526;11.536;2024-03-02T09:25:17;25.10;;;16.95;;
51877;SDS011;37911;51.526;11.536;2024-03-02T09:28:21;26.77;;;15.93;;
51877;SDS011;37911;51.526;11.536;2024-03-02T09:31:27;30.48;;;25.02;;
51877;SDS011;37911;51.526;11.536;2024-03-02T09:34:30;27.55;;;19.90;;
51877;SDS011;37911;51.526;11.536;2024-03-02T09:37:34;24.35;;;16.50;;
51877;SDS011;37911;51.526;11.536;2024-03-02T09:40:37;24.60;;;16.05;;
51877;SDS011;37911;51.526;11.536;2024-03-02T09:43:41;24.08;;;14.57;;
51877;SDS011;37911;51.526;11.536;2024-03-02T09:46:50;24.48;;;15.98;;
51877;SDS011;37911;51.526;11.536;2024-03-02T09:49:54;34.75;;;20.80;;
51877;SDS011;37911;51.526;11.536;2024-03-02T09:52:58;35.30;;;20.02;;
51877;SDS011;37911;51.526;11.536;2024-03-02T09:56:02;31.25;;;18.17;;
51877;SDS011;37911;51.526;11.536;2024-03-02T09:59:06;38.63;;;19.83;;
51877;SDS011;37911;51.526;11.536;2024-03-02T10:02:12;34.22;;;19.75;;
51877;SDS011;37911;51.526;11.536;2024-03-02T10:05:23;25.88;;;15.10;;
51877;SDS011;37911;51.526;11.536;2024-03-02T10:08:26;25.27;;;13.38;;
51877;SDS011;37911;51.526;11.536;2024-03-02T10:11:45;24.70;;;13.77;;
51877;SDS011;37911;51.526;11.536;2024-03-02T10:14:48;22.90;;;15.25;;
51877;SDS011;37911;51.526;11.536;2024-03-02T10:17:55;22.88;;;14.52;;
51877;SDS011;37911;51.526;11.536;2024-03-02T10:21:04;19.38;;;12.68;;
51877;SDS011;37911;51.526;11.536;2024-03-02T10:24:17;20.92;;;13.30;;
51877;SDS011;37911;51.526;11.536;2024-03-02T10:27:22;18.25;;;10.63;;
51877;SDS011;37911;51.526;11.536;2024-03-02T10:30:30;20.33;;;11.45;;
51877;SDS011;37911;51.526;11.536;2024-03-02T10:33:36;18.88;;;12.05;;
51877;SDS011;37911;51.526;11.536;2024-03-02T10:36:40;17.27;;;10.60;;
51877;SDS011;37911;51.526;11.536;2024-03-02T10:39:45;18.73;;;12.05;;
51877;SDS011;37911;51.526;11.536;2024-03-02T10:42:49;21.58;;;12.32;;
51877;SDS011;37911;51.526;11.536;2024-03-02T10:45:53;21.00;;;18.80;;
51877;SDS011;37911;51.526;11.536;2024-03-02T10:49:01;19.95;;;12.80;;
51877;SDS011;37911;51.526;11.536;2024-03-02T10:52:05;20.10;;;14.23;;
51877;SDS011;37911;51.526;11.536;2024-03-02T10:55:09;15.85;;;9.82;;
51877;SDS011;37911;51.526;11.536;2024-03-02T10:58:13;18.98;;;11.38;;
51877;SDS011;37911;51.526;11.536;2024-03-02T11:01:17;18.10;;;11.30;;
51877;SDS011;37911;51.526;11.536;2024-03-02T11:04:24;18.80;;;12.93;;
51877;SDS011;37911;51.526;11.536;2024-03-02T11:07:28;15.95;;;10.05;;
51877;SDS011;37911;51.526;11.536;2024-03-02T11:10:34;18.67;;;12.38;;
51877;SDS011;37911;51.526;11.536;2024-03-02T11:13:39;18.13;;;10.73;;
51877;SDS011;37911;51.526;11.536;2024-03-02T11:16:49;17.48;;;9.57;;
51877;SDS011;37911;51.526;11.536;2024-03-02T12:27:55;13.63;;;9.05;;
51877;SDS011;37911;51.526;11.536;2024-03-02T12:30:59;14.23;;;10.18;;
51877;SDS011;37911;51.526;11.536;2024-03-02T12:34:02;16.55;;;9.65;;
51877;SDS011;37911;51.526;11.536;2024-03-02T12:37:09;18.40;;;11.82;;
51877;SDS011;37911;51.526;11.536;2024-03-02T12:43:20;13.75;;;8.35;;
51877;SDS011;37911;51.526;11.536;2024-03-02T12:46:24;13.38;;;9.30;;
51877;SDS011;37911;51.526;11.536;2024-03-02T12:49:28;17.10;;;12.27;;
51877;SDS011;37911;51.526;11.536;2024-03-02T12:52:35;15.20;;;10.32;;
51877;SDS011;37911;51.526;11.536;2024-03-02T12:55:38;16.25;;;10.32;;
51877;SDS011;37911;51.526;11.536;2024-03-02T12:58:42;17.98;;;9.35;;
51877;SDS011;37911;51.526;11.536;2024-03-02T13:01:49;13.48;;;8.68;;
51877;SDS011;37911;51.526;11.536;2024-03-02T13:04:53;13.93;;;9.23;;
51877;SDS011;37911;51.526;11.536;2024-03-02T13:07:59;15.18;;;8.63;;
51877;SDS011;37911;51.526;11.536;2024-03-02T13:11:06;12.25;;;8.18;;
51877;SDS011;37911;51.526;11.536;2024-03-02T13:14:10;14.35;;;7.47;;
51877;SDS011;37911;51.526;11.536;2024-03-02T13:17:13;15.60;;;8.40;;
51877;SDS011;37911;51.526;11.536;2024-03-02T13:20:17;14.13;;;9.35;;
51877;SDS011;37911;51.526;11.536;2024-03-02T13:23:23;12.50;;;8.30;;
51877;SDS011;37911;51.526;11.536;2024-03-02T13:26:26;10.02;;;8.10;;
51877;SDS011;37911;51.526;11.536;2024-03-02T13:29:29;11.73;;;6.97;;
51877;SDS011;37911;51.526;11.536;2024-03-02T13:32:33;9.85;;;6.82;;
51877;SDS011;37911;51.526;11.536;2024-03-02T13:35:37;8.90;;;6.43;;
51877;SDS011;37911;51.526;11.536;2024-03-02T13:38:43;11.00;;;6.95;;
51877;SDS011;37911;51.526;11.536;2024-03-02T13:41:46;11.50;;;7.15;;
51877;SDS011;37911;51.526;11.536;2024-03-02T13:44:52;10.43;;;6.78;;
51877;SDS011;37911;51.526;11.536;2024-03-02T13:47:56;10.57;;;6.10;;
51877;SDS011;37911;51.526;11.536;2024-03-02T13:50:59;11.63;;;6.97;;
51877;SDS011;37911;51.526;11.536;2024-03-02T13:54:06;7.95;;;5.63;;
51877;SDS011;37911;51.526;11.536;2024-03-02T13:57:09;9.63;;;5.82;;
51877;SDS011;37911;51.526;11.536;2024-03-02T14:00:14;7.82;;;5.53;;
51877;SDS011;37911;51.526;11.536;2024-03-02T14:03:17;9.18;;;5.43;;
51877;SDS011;37911;51.526;11.536;2024-03-02T14:06:21;8.07;;;5.53;;
51877;SDS011;37911;51.526;11.536;2024-03-02T14:09:29;30.48;;;19.95;;
51877;SDS011;37911;51.526;11.536;2024-03-02T14:12:33;33.03;;;19.00;;
51877;SDS011;37911;51.526;11.536;2024-03-02T14:15:36;26.65;;;17.25;;
51877;SDS011;37911;51.526;11.536;2024-03-02T14:18:40;22.00;;;16.23;;
51877;SDS011;37911;51.526;11.536;2024-03-02T14:21:44;15.55;;;11.32;;
51877;SDS011;37911;51.526;11.536;2024-03-02T14:24:50;33.40;;;20.05;;
51877;SDS011;37911;51.526;11.536;2024-03-02T14:27:53;15.98;;;12.07;;
51877;SDS011;37911;51.526;11.536;2024-03-02T14:30:57;11.93;;;7.65;;
51877;SDS011;37911;51.526;11.536;2024-03-02T14:34:02;8.93;;;5.78;;
51877;SDS011;37911;51.526;11.536;2024-03-02T14:37:05;14.27;;;9.65;;
51877;SDS011;37911;51.526;11.536;2024-03-02T14:40:12;11.90;;;7.57;;
51877;SDS011;37911;51.526;11.536;2024-03-02T14:43:15;15.13;;;11.77;;
51877;SDS011;37911;51.526;11.536;2024-03-02T14:46:19;20.75;;;15.32;;
51877;SDS011;37911;51.526;11.536;2024-03-02T14:49:22;17.05;;;11.95;;
51877;SDS011;37911;51.526;11.536;2024-03-02T14:52:26;19.58;;;13.30;;
51877;SDS011;37911;51.526;11.536;2024-03-02T14:55:39;24.67;;;17.17;;
51877;SDS011;37911;51.526;11.536;2024-03-02T14:58:44;18.50;;;12.00;;
51877;SDS011;37911;51.526;11.536;2024-03-02T15:01:47;17.70;;;10.10;;
51877;SDS011;37911;51.526;11.536;2024-03-02T15:04:51;18.50;;;13.68;;
51877;SDS011;37911;51.526;11.536;2024-03-02T15:07:54;48.95;;;35.03;;
51877;SDS011;37911;51.526;11.536;2024-03-02T15:11:02;43.20;;;30.30;;
51877;SDS011;37911;51.526;11.536;2024-03-02T15:14:05;24.38;;;15.95;;
51877;SDS011;37911;51.526;11.536;2024-03-02T15:17:09;16.15;;;12.27;;
51877;SDS011;37911;51.526;11.536;2024-03-02T15:20:12;23.17;;;14.32;;
51877;SDS011;37911;51.526;11.536;2024-03-02T15:23:15;15.40;;;11.57;;
51877;SDS011;37911;51.526;11.536;2024-03-02T15:26:21;21.75;;;12.13;;
51877;SDS011;37911;51.526;11.536;2024-03-02T15:29:25;16.45;;;11.63;;
51877;SDS011;37911;51.526;11.536;2024-03-02T15:32:29;14.80;;;10.52;;
51877;SDS011;37911;51.526;11.536;2024-03-02T15:35:34;12.80;;;7.28;;
51877;SDS011;37911;51.526;11.536;2024-03-02T15:38:37;35.03;;;21.98;;
51877;SDS011;37911;51.526;11.536;2024-03-02T15:41:46;26.23;;;12.18;;
51877;SDS011;37911;51.526;11.536;2024-03-02T15:44:53;15.23;;;9.63;;
51877;SDS011;37911;51.526;11.536;2024-03-02T15:47:57;16.63;;;11.07;;
51877;SDS011;37911;51.526;11.536;2024-03-02T15:51:00;14.80;;;9.90;;
51877;SDS011;37911;51.526;11.536;2024-03-02T15:54:04;26.20;;;10.48;;
51877;SDS011;37911;51.526;11.536;2024-03-02T15:57:10;26.35;;;17.13;;
51877;SDS011;37911;51.526;11.536;2024-03-02T16:00:14;16.65;;;10.85;;
51877;SDS011;37911;51.526;11.536;2024-03-02T16:03:18;20.33;;;14.55;;
51877;SDS011;37911;51.526;11.536;2024-03-02T16:06:23;16.00;;;11.20;;
51877;SDS011;37911;51.526;11.536;2024-03-02T16:09:28;18.90;;;11.75;;
51877;SDS011;37911;51.526;11.536;2024-03-02T16:12:34;15.50;;;8.98;;
51877;SDS011;37911;51.526;11.536;2024-03-02T16:15:38;17.27;;;11.07;;
51877;SDS011;37911;51.526;11.536;2024-03-02T16:18:41;13.70;;;7.55;;
51877;SDS011;37911;51.526;11.536;2024-03-02T16:21:44;11.02;;;7.38;;
51877;SDS011;37911;51.526;11.536;2024-03-02T16:24:48;24.08;;;17.05;;
51877;SDS011;37911;51.526;11.536;2024-03-02T16:27:54;31.73;;;20.73;;
51877;SDS011;37911;51.526;11.536;2024-03-02T16:58:33;96.30;;;60.20;;
51877;SDS011;37911;51.526;11.536;2024-03-02T17:01:37;65.68;;;38.15;;
51877;SDS011;37911;51.526;11.536;2024-03-02T17:04:40;40.20;;;26.35;;
51877;SDS011;37911;51.526;11.536;2024-03-02T17:56:49;62.50;;;46.10;;
51877;SDS011;37911;51.526;11.536;2024-03-02T18:03:00;53.50;;;41.38;;
51877;SDS011;37911;51.526;11.536;2024-03-02T18:06:04;52.05;;;38.05;;
51877;SDS011;37911;51.526;11.536;2024-03-02T18:09:08;40.00;;;28.98;;
51877;SDS011;37911;51.526;11.536;2024-03-02T18:12:12;29.50;;;21.15;;
51877;SDS011;37911;51.526;11.536;2024-03-02T18:15:18;25.27;;;18.33;;
51877;SDS011;37911;51.526;11.536;2024-03-02T18:18:21;24.55;;;17.20;;
51877;SDS011;37911;51.526;11.536;2024-03-02T18:24:28;81.47;;;51.40;;
51877;SDS011;37911;51.526;11.536;2024-03-02T18:27:31;29.73;;;20.20;;
51877;SDS011;37911;51.526;11.536;2024-03-02T18:30:37;23.70;;;15.65;;
51877;SDS011;37911;51.526;11.536;2024-03-02T18:33:41;21.17;;;14.18;;
51877;SDS011;37911;51.526;11.536;2024-03-02T18:36:44;17.90;;;11.88;;
51877;SDS011;37911;51.526;11.536;2024-03-02T18:39:48;18.80;;;11.80;;
51877;SDS011;37911;51.526;11.536;2024-03-02T18:42:51;17.17;;;10.25;;
51877;SDS011;37911;51.526;11.536;2024-03-02T18:45:57;18.58;;;11.85;;
51877;SDS011;37911;51.526;11.536;2024-03-02T18:49:00;19.65;;;13.32;;
51877;SDS011;37911;51.526;11.536;2024-03-02T18:52:04;16.25;;;11.82;;
51877;SDS011;37911;51.526;11.536;2024-03-02T18:55:08;15.57;;;11.52;;
51877;SDS011;37911;51.526;11.536;2024-03-02T18:58:12;14.50;;;10.65;;
51877;SDS011;37911;51.526;11.536;2024-03-02T19:01:18;20.27;;;12.35;;
51877;SDS011;37911;51.526;11.536;2024-03-02T19:04:21;50.65;;;32.63;;
51877;SDS011;37911;51.526;11.536;2024-03-02T19:07:25;79.00;;;48.72;;
51877;SDS011;37911;51.526;11.536;2024-03-02T19:10:28;38.35;;;27.60;;
51877;SDS011;37911;51.526;11.536;2024-03-02T19:13:31;34.08;;;25.63;;
51877;SDS011;37911;51.526;11.536;2024-03-02T19:16:37;24.40;;;17.90;;
51877;SDS011;37911;51.526;11.536;2024-03-02T19:19:41;19.08;;;16.15;;
51877;SDS011;37911;51.526;11.536;2024-03-02T19:25:47;15.27;;;10.63;;
51877;SDS011;37911;51.526;11.536;2024-03-02T19:28:50;15.65;;;12.68;;
51877;SDS011;37911;51.526;11.536;2024-03-02T19:31:57;34.17;;;25.13;;
51877;SDS011;37911;51.526;11.536;2024-03-02T20:57:49;19.92;;;13.80;;
51877;SDS011;37911;51.526;11.536;2024-03-02T21:00:52;22.10;;;15.73;;
51877;SDS011;37911;51.526;11.536;2024-03-02T21:03:58;20.20;;;13.80;;
51877;SDS011;37911;51.526;11.536;2024-03-02T21:07:02;19.73;;;12.38;;
51877;SDS011;37911;51.526;11.536;2024-03-02T21:43:52;23.30;;;16.65;;
51877;SDS011;37911;51.526;11.536;2024-03-02T21:46:56;20.75;;;14.70;;
51877;SDS011;37911;51.526;11.536;2024-03-02T21:53:05;22.83;;;15.52;;
51877;SDS011;37911;51.526;11.536;2024-03-02T21:56:08;20.85;;;14.15;;
51877;SDS011;37911;51.526;11.536;2024-03-02T21:59:15;18.75;;;13.05;;
51877;SDS011;37911;51.526;11.536;2024-03-02T22:02:18;18.20;;;13.20;;
51877;SDS011;37911;51.526;11.536;2024-03-02T22:05:24;22.50;;;16.25;;
51877;SDS011;37911;51.526;11.536;2024-03-02T22:08:29;21.67;;;14.67;;
51877;SDS011;37911;51.526;11.536;2024-03-02T22:11:32;24.23;;;17.17;;
51877;SDS011;37911;51.526;11.536;2024-03-02T22:14:35;19.95;;;13.95;;
51877;SDS011;37911;51.526;11.536;2024-03-02T22:17:39;25.20;;;14.68;;
51877;SDS011;37911;51.526;11.536;2024-03-02T22:20:44;19.83;;;13.85;;
51877;SDS011;37911;51.526;11.536;2024-03-02T22:23:48;20.50;;;14.73;;
51877;SDS011;37911;51.526;11.536;2024-03-02T22:26:51;22.10;;;14.32;;
51877;SDS011;37911;51.526;11.536;2024-03-02T22:29:55;20.77;;;14.25;;
51877;SDS011;37911;51.526;11.536;2024-03-02T22:32:58;20.90;;;14.07;;
51877;SDS011;37911;51.526;11.536;2024-03-02T22:36:05;20.42;;;13.68;;
51877;SDS011;37911;51.526;11.536;2024-03-02T22:39:10;24.10;;;13.38;;
51877;SDS011;37911;51.526;11.536;2024-03-02T22:42:13;21.08;;;12.63;;
51877;SDS011;37911;51.526;11.536;2024-03-02T22:45:17;18.83;;;13.38;;
51877;SDS011;37911;51.526;11.536;2024-03-02T22:48:20;20.30;;;13.20;;
51877;SDS011;37911;51.526;11.536;2024-03-02T22:51:26;21.08;;;12.55;;
51877;SDS011;37911;51.526;11.536;2024-03-02T22:54:30;17.85;;;13.13;;
51877;SDS011;37911;51.526;11.536;2024-03-02T22:57:33;18.75;;;12.73;;
51877;SDS011;37911;51.526;11.536;2024-03-02T23:00:36;18.67;;;12.18;;
51877;SDS011;37911;51.526;11.536;2024-03-02T23:03:47;23.60;;;14.82;;
51877;SDS011;37911;51.526;11.536;2024-03-02T23:06:53;16.92;;;12.32;;
51877;SDS011;37911;51.526;11.536;2024-03-02T23:09:56;23.83;;;13.65;;
51877;SDS011;37911;51.526;11.536;2024-03-02T23:13:00;17.80;;;13.85;;
51877;SDS011;37911;51.526;11.536;2024-03-02T23:16:03;20.48;;;12.73;;
51877;SDS011;37911;51.526;11.536;2024-03-02T23:19:07;16.60;;;11.32;;
51877;SDS011;37911;51.526;11.536;2024-03-02T23:22:14;18.70;;;12.00;;
51877;SDS011;37911;51.526;11.536;2024-03-02T23:25:17;19.10;;;12.05;;
51877;SDS011;37911;51.526;11.536;2024-03-02T23:28:21;20.67;;;12.10;;
51877;SDS011;37911;51.526;11.536;2024-03-02T23:31:24;17.77;;;12.10;;
51877;SDS011;37911;51.526;11.536;2024-03-02T23:43:57;16.65;;;11.18;;
51877;SDS011;37911;51.526;11.536;2024-03-02T23:47:01;21.42;;;12.57;;
51877;SDS011;37911;51.526;11.536;2024-03-02T23:50:06;18.10;;;11.27;;
51877;SDS011;37911;51.526;11.536;2024-03-02T23:53:12;20.65;;;12.38;;
51877;SDS011;37911;51.526;11.536;2024-03-02T23:56:16;20.95;;;11.77;;
51877;SDS011;37911;51.526;11.536;2024-03-02T23:59:19;22.38;;;15.13;;
